sensor_id;sensor_type;location;lat;lon;timestamp;pressure;altitude;pressure_sealevel;temperature;humidity
24336;BME280;33098;52.400;16.880;2023-03-26T00:02:03;99409.20;;;8.51;100.00
24336;BME280;33098;52.400;16.880;2023-03-26T00:04:35;99410.70;;;8.48;100.00
24336;BME280;33098;52.400;16.880;2023-03-26T00:07:10;99412.08;;;8.42;100.00
24336;BME280;33098;52.400;16.880;2023-03-26T00:09:41;99408.48;;;8.36;100.00
24336;BME280;33098;52.400;16.880;2023-03-26T00:12:12;99411.56;;;8.35;100.00
24336;BME280;33098;52.400;16.880;2023-03-26T00:14:42;99409.35;;;8.37;100.00
24336;BME280;33098;52.400;16.880;2023-03-26T00:17:10;99410.33;;;8.38;100.00
24336;BME280;33098;52.400;16.880;2023-03-26T00:19:37;99412.05;;;8.42;100.00
24336;BME280;33098;52.400;16.880;2023-03-26T00:22:06;99420.02;;;8.40;100.00
24336;BME280;33098;52.400;16.880;2023-03-26T00:24:41;99422.80;;;8.41;100.00
24336;BME280;33098;52.400;16.880;2023-03-26T00:27:11;99413.58;;;8.45;100.00
24336;BME280;33098;52.400;16.880;2023-03-26T00:29:43;99406.39;;;8.46;100.00
24336;BME280;33098;52.400;16.880;2023-03-26T00:32:14;99399.91;;;8.39;100.00
24336;BME280;33098;52.400;16.880;2023-03-26T00:34:43;99400.09;;;8.33;100.00
24336;BME280;33098;52.400;16.880;2023-03-26T00:37:12;99394.15;;;8.22;100.00
24336;BME280;33098;52.400;16.880;2023-03-26T00:39:43;99387.80;;;8.20;100.00
24336;BME280;33098;52.400;16.880;2023-03-26T00:42:20;99388.06;;;8.18;100.00
24336;BME280;33098;52.400;16.880;2023-03-26T00:44:50;99383.71;;;8.16;100.00
24336;BME280;33098;52.400;16.880;2023-03-26T00:47:20;99383.45;;;8.17;100.00
24336;BME280;33098;52.400;16.880;2023-03-26T00:49:53;99378.89;;;8.16;100.00
24336;BME280;33098;52.400;16.880;2023-03-26T00:52:26;99377.55;;;8.15;100.00
24336;BME280;33098;52.400;16.880;2023-03-26T00:54:54;99375.21;;;8.14;100.00
24336;BME280;33098;52.400;16.880;2023-03-26T00:57:22;99374.11;;;8.10;100.00
24336;BME280;33098;52.400;16.880;2023-03-26T00:59:59;99368.05;;;8.00;100.00
24336;BME280;33098;52.400;16.880;2023-03-26T01:02:43;99363.58;;;7.99;100.00
24336;BME280;33098;52.400;16.880;2023-03-26T01:05:37;99370.34;;;8.07;100.00
24336;BME280;33098;52.400;16.880;2023-03-26T01:08:14;99368.66;;;8.10;100.00
24336;BME280;33098;52.400;16.880;2023-03-26T01:10:43;99365.89;;;8.16;100.00
24336;BME280;33098;52.400;16.880;2023-03-26T01:13:21;99361.30;;;8.17;100.00
24336;BME280;33098;52.400;16.880;2023-03-26T01:15:49;99364.95;;;8.20;100.00
24336;BME280;33098;52.400;16.880;2023-03-26T01:18:21;99364.23;;;8.16;100.00
24336;BME280;33098;52.400;16.880;2023-03-26T01:20:54;99365.27;;;8.12;100.00
24336;BME280;33098;52.400;16.880;2023-03-26T01:23:35;99366.02;;;8.20;100.00
24336;BME280;33098;52.400;16.880;2023-03-26T01:26:07;99363.27;;;8.21;100.00
24336;BME280;33098;52.400;16.880;2023-03-26T01:28:41;99364.33;;;8.19;100.00
24336;BME280;33098;52.400;16.880;2023-03-26T01:34:14;99359.33;;;8.14;100.00
24336;BME280;33098;52.400;16.880;2023-03-26T01:39:54;99364.44;;;8.16;100.00
24336;BME280;33098;52.400;16.880;2023-03-26T01:42:42;99365.98;;;8.23;100.00
24336;BME280;33098;52.400;16.880;2023-03-26T01:45:17;99370.64;;;8.22;100.00
24336;BME280;33098;52.400;16.880;2023-03-26T01:47:47;99366.10;;;8.21;100.00
24336;BME280;33098;52.400;16.880;2023-03-26T01:50:15;99361.55;;;8.23;100.00
24336;BME280;33098;52.400;16.880;2023-03-26T01:52:43;99363.71;;;8.20;100.00
24336;BME280;33098;52.400;16.880;2023-03-26T01:55:11;99356.17;;;8.19;100.00
24336;BME280;33098;52.400;16.880;2023-03-26T01:57:51;99357.95;;;8.17;100.00
24336;BME280;33098;52.400;16.880;2023-03-26T02:08:02;99353.03;;;8.21;100.00
24336;BME280;33098;52.400;16.880;2023-03-26T02:10:33;99349.86;;;8.21;100.00
24336;BME280;33098;52.400;16.880;2023-03-26T02:13:02;99352.82;;;8.17;100.00
24336;BME280;33098;52.400;16.880;2023-03-26T02:15:31;99351.11;;;8.18;100.00
24336;BME280;33098;52.400;16.880;2023-03-26T02:18:01;99350.61;;;8.16;100.00
24336;BME280;33098;52.400;16.880;2023-03-26T02:20:31;99348.08;;;8.13;100.00
24336;BME280;33098;52.400;16.880;2023-03-26T02:23:04;99350.08;;;8.14;100.00
24336;BME280;33098;52.400;16.880;2023-03-26T02:25:36;99351.96;;;8.21;100.00
24336;BME280;33098;52.400;16.880;2023-03-26T02:28:08;99350.04;;;8.25;100.00
24336;BME280;33098;52.400;16.880;2023-03-26T02:30:36;99348.77;;;8.28;100.00
24336;BME280;33098;52.400;16.880;2023-03-26T02:33:03;99341.10;;;8.30;100.00
24336;BME280;33098;52.400;16.880;2023-03-26T02:35:38;99338.27;;;8.36;100.00
24336;BME280;33098;52.400;16.880;2023-03-26T02:38:08;99340.41;;;8.45;100.00
24336;BME280;33098;52.400;16.880;2023-03-26T02:40:43;99344.43;;;8.47;100.00
24336;BME280;33098;52.400;16.880;2023-03-26T02:43:10;99341.64;;;8.41;100.00
24336;BME280;33098;52.400;16.880;2023-03-26T02:45:38;99338.11;;;8.38;100.00
24336;BME280;33098;52.400;16.880;2023-03-26T02:48:24;99334.20;;;8.39;100.00
24336;BME280;33098;52.400;16.880;2023-03-26T02:51:03;99335.98;;;8.36;100.00
24336;BME280;33098;52.400;16.880;2023-03-26T02:53:38;99335.20;;;8.39;100.00
24336;BME280;33098;52.400;16.880;2023-03-26T02:56:28;99340.10;;;8.44;100.00
24336;BME280;33098;52.400;16.880;2023-03-26T02:59:17;99339.42;;;8.44;100.00
24336;BME280;33098;52.400;16.880;2023-03-26T03:01:46;99336.59;;;8.42;100.00
24336;BME280;33098;52.400;16.880;2023-03-26T03:04:14;99340.98;;;8.42;100.00
24336;BME280;33098;52.400;16.880;2023-03-26T03:06:42;99334.02;;;8.41;100.00
24336;BME280;33098;52.400;16.880;2023-03-26T03:09:15;99335.91;;;8.38;100.00
24336;BME280;33098;52.400;16.880;2023-03-26T03:11:47;99336.48;;;8.37;100.00
24336;BME280;33098;52.400;16.880;2023-03-26T03:14:15;99335.01;;;8.35;100.00
24336;BME280;33098;52.400;16.880;2023-03-26T03:16:42;99333.41;;;8.31;100.00
24336;BME280;33098;52.400;16.880;2023-03-26T03:19:10;99335.86;;;8.29;100.00
24336;BME280;33098;52.400;16.880;2023-03-26T03:21:38;99335.45;;;8.34;100.00
24336;BME280;33098;52.400;16.880;2023-03-26T03:24:06;99338.10;;;8.41;100.00
24336;BME280;33098;52.400;16.880;2023-03-26T03:26:48;99339.98;;;8.39;100.00
24336;BME280;33098;52.400;16.880;2023-03-26T03:29:31;99338.45;;;8.41;100.00
24336;BME280;33098;52.400;16.880;2023-03-26T03:32:09;99344.72;;;8.42;100.00
24336;BME280;33098;52.400;16.880;2023-03-26T03:34:41;99340.60;;;8.40;100.00
24336;BME280;33098;52.400;16.880;2023-03-26T03:37:08;99341.30;;;8.43;100.00
24336;BME280;33098;52.400;16.880;2023-03-26T03:39:43;99347.86;;;8.44;100.00
24336;BME280;33098;52.400;16.880;2023-03-26T03:42:11;99344.46;;;8.45;100.00
24336;BME280;33098;52.400;16.880;2023-03-26T03:44:39;99346.57;;;8.43;100.00
24336;BME280;33098;52.400;16.880;2023-03-26T03:47:12;99345.61;;;8.42;100.00
24336;BME280;33098;52.400;16.880;2023-03-26T03:49:41;99348.80;;;8.44;100.00
24336;BME280;33098;52.400;16.880;2023-03-26T03:52:09;99347.55;;;8.40;100.00
24336;BME280;33098;52.400;16.880;2023-03-26T03:54:39;99352.60;;;8.47;100.00
24336;BME280;33098;52.400;16.880;2023-03-26T03:57:32;99349.63;;;8.44;100.00
24336;BME280;33098;52.400;16.880;2023-03-26T04:00:04;99345.61;;;8.46;100.00
24336;BME280;33098;52.400;16.880;2023-03-26T04:02:49;99350.27;;;8.47;100.00
24336;BME280;33098;52.400;16.880;2023-03-26T04:05:16;99348.56;;;8.44;100.00
24336;BME280;33098;52.400;16.880;2023-03-26T04:07:46;99348.90;;;8.41;100.00
24336;BME280;33098;52.400;16.880;2023-03-26T04:10:31;99349.39;;;8.37;100.00
24336;BME280;33098;52.400;16.880;2023-03-26T04:13:27;99347.02;;;8.31;100.00
24336;BME280;33098;52.400;16.880;2023-03-26T04:15:55;99346.27;;;8.28;100.00
24336;BME280;33098;52.400;16.880;2023-03-26T04:18:27;99344.60;;;8.26;100.00
24336;BME280;33098;52.400;16.880;2023-03-26T04:20:56;99350.50;;;8.24;100.00
24336;BME280;33098;52.400;16.880;2023-03-26T04:23:29;99348.10;;;8.21;100.00
24336;BME280;33098;52.400;16.880;2023-03-26T04:26:02;99347.08;;;8.24;100.00
24336;BME280;33098;52.400;16.880;2023-03-26T04:28:53;99345.52;;;8.32;100.00
24336;BME280;33098;52.400;16.880;2023-03-26T04:31:27;99344.81;;;8.32;100.00
24336;BME280;33098;52.400;16.880;2023-03-26T04:33:58;99344.14;;;8.32;100.00
24336;BME280;33098;52.400;16.880;2023-03-26T04:36:31;99347.88;;;8.36;100.00
24336;BME280;33098;52.400;16.880;2023-03-26T04:39:01;99346.21;;;8.32;100.00
24336;BME280;33098;52.400;16.880;2023-03-26T04:41:50;99348.73;;;8.34;100.00
24336;BME280;33098;52.400;16.880;2023-03-26T04:44:20;99351.50;;;8.41;100.00
24336;BME280;33098;52.400;16.880;2023-03-26T04:47:04;99353.17;;;8.42;100.00
24336;BME280;33098;52.400;16.880;2023-03-26T04:49:40;99351.59;;;8.49;100.00
24336;BME280;33098;52.400;16.880;2023-03-26T04:52:10;99353.39;;;8.54;100.00
24336;BME280;33098;52.400;16.880;2023-03-26T04:54:56;99352.65;;;8.48;100.00
24336;BME280;33098;52.400;16.880;2023-03-26T04:57:25;99351.21;;;8.47;100.00
24336;BME280;33098;52.400;16.880;2023-03-26T05:00:03;99351.64;;;8.46;100.00
24336;BME280;33098;52.400;16.880;2023-03-26T05:02:47;99348.39;;;8.44;100.00
24336;BME280;33098;52.400;16.880;2023-03-26T05:05:19;99347.52;;;8.40;100.00
24336;BME280;33098;52.400;16.880;2023-03-26T05:07:48;99346.62;;;8.36;100.00
24336;BME280;33098;52.400;16.880;2023-03-26T05:10:16;99345.23;;;8.33;100.00
24336;BME280;33098;52.400;16.880;2023-03-26T05:13:03;99345.51;;;8.32;100.00
24336;BME280;33098;52.400;16.880;2023-03-26T05:15:36;99345.05;;;8.33;100.00
24336;BME280;33098;52.400;16.880;2023-03-26T05:18:18;99348.48;;;8.39;100.00
24336;BME280;33098;52.400;16.880;2023-03-26T05:20:49;99351.16;;;8.45;100.00
24336;BME280;33098;52.400;16.880;2023-03-26T05:23:17;99349.36;;;8.43;99.97
24336;BME280;33098;52.400;16.880;2023-03-26T05:25:54;99352.33;;;8.40;99.81
24336;BME280;33098;52.400;16.880;2023-03-26T05:28:27;99353.98;;;8.34;99.51
24336;BME280;33098;52.400;16.880;2023-03-26T05:30:58;99356.34;;;8.28;99.07
24336;BME280;33098;52.400;16.880;2023-03-26T05:33:28;99354.71;;;8.28;99.22
24336;BME280;33098;52.400;16.880;2023-03-26T05:38:31;99359.98;;;8.27;99.13
24336;BME280;33098;52.400;16.880;2023-03-26T05:41:02;99363.38;;;8.32;99.22
24336;BME280;33098;52.400;16.880;2023-03-26T05:43:32;99360.30;;;8.29;98.74
24336;BME280;33098;52.400;16.880;2023-03-26T05:46:06;99360.20;;;8.28;98.58
24336;BME280;33098;52.400;16.880;2023-03-26T05:48:34;99364.58;;;8.31;98.66
24336;BME280;33098;52.400;16.880;2023-03-26T05:51:01;99374.10;;;8.22;97.43
24336;BME280;33098;52.400;16.880;2023-03-26T05:53:30;99375.04;;;8.12;96.87
24336;BME280;33098;52.400;16.880;2023-03-26T05:56:19;99372.17;;;8.10;97.00
24336;BME280;33098;52.400;16.880;2023-03-26T05:59:04;99374.40;;;8.15;97.50
24336;BME280;33098;52.400;16.880;2023-03-26T06:01:51;99375.34;;;8.18;97.36
24336;BME280;33098;52.400;16.880;2023-03-26T06:04:38;99377.55;;;8.17;96.97
24336;BME280;33098;52.400;16.880;2023-03-26T06:07:30;99382.61;;;8.20;97.18
24336;BME280;33098;52.400;16.880;2023-03-26T06:10:18;99387.45;;;8.24;97.05
24336;BME280;33098;52.400;16.880;2023-03-26T06:12:46;99392.78;;;8.23;96.75
24336;BME280;33098;52.400;16.880;2023-03-26T06:15:13;99388.34;;;8.15;95.99
24336;BME280;33098;52.400;16.880;2023-03-26T06:17:48;99392.58;;;8.11;95.94
24336;BME280;33098;52.400;16.880;2023-03-26T06:20:33;99398.77;;;8.11;95.98
24336;BME280;33098;52.400;16.880;2023-03-26T06:23:07;99399.92;;;8.02;95.67
24336;BME280;33098;52.400;16.880;2023-03-26T06:25:46;99398.52;;;7.95;95.88
24336;BME280;33098;52.400;16.880;2023-03-26T06:28:31;99398.05;;;7.98;96.39
24336;BME280;33098;52.400;16.880;2023-03-26T06:31:12;99404.85;;;8.06;96.72
24336;BME280;33098;52.400;16.880;2023-03-26T06:33:45;99407.17;;;8.06;96.55
24336;BME280;33098;52.400;16.880;2023-03-26T06:36:15;99404.35;;;8.04;96.55
24336;BME280;33098;52.400;16.880;2023-03-26T06:38:43;99410.02;;;8.08;96.72
24336;BME280;33098;52.400;16.880;2023-03-26T06:41:10;99409.90;;;8.05;96.63
24336;BME280;33098;52.400;16.880;2023-03-26T06:44:01;99407.83;;;8.13;97.22
24336;BME280;33098;52.400;16.880;2023-03-26T06:46:50;99413.69;;;8.23;97.12
24336;BME280;33098;52.400;16.880;2023-03-26T06:49:36;99411.62;;;8.28;97.09
24336;BME280;33098;52.400;16.880;2023-03-26T06:52:33;99411.76;;;8.33;96.83
24336;BME280;33098;52.400;16.880;2023-03-26T06:55:20;99418.23;;;8.38;96.76
24336;BME280;33098;52.400;16.880;2023-03-26T06:58:03;99421.89;;;8.43;96.58
24336;BME280;33098;52.400;16.880;2023-03-26T07:01:02;99424.95;;;8.47;96.02
24336;BME280;33098;52.400;16.880;2023-03-26T07:03:49;99423.89;;;8.55;96.10
24336;BME280;33098;52.400;16.880;2023-03-26T07:06:38;99421.98;;;8.61;95.92
24336;BME280;33098;52.400;16.880;2023-03-26T07:09:26;99427.09;;;8.67;95.59
24336;BME280;33098;52.400;16.880;2023-03-26T07:12:02;99425.79;;;8.68;94.70
24336;BME280;33098;52.400;16.880;2023-03-26T07:14:49;99433.41;;;8.67;94.32
24336;BME280;33098;52.400;16.880;2023-03-26T07:17:41;99431.52;;;8.77;94.59
24336;BME280;33098;52.400;16.880;2023-03-26T07:20:19;99435.58;;;8.79;94.11
24336;BME280;33098;52.400;16.880;2023-03-26T07:22:49;99442.86;;;8.71;92.89
24336;BME280;33098;52.400;16.880;2023-03-26T07:25:43;99437.10;;;8.61;92.92
24336;BME280;33098;52.400;16.880;2023-03-26T07:28:40;99437.80;;;8.61;93.18
24336;BME280;33098;52.400;16.880;2023-03-26T07:31:53;99437.66;;;8.72;93.88
24336;BME280;33098;52.400;16.880;2023-03-26T07:34:50;99442.91;;;8.81;93.73
24336;BME280;33098;52.400;16.880;2023-03-26T07:43:15;99442.45;;;8.86;93.16
24336;BME280;33098;52.400;16.880;2023-03-26T07:46:11;99442.77;;;8.86;92.49
24336;BME280;33098;52.400;16.880;2023-03-26T07:48:47;99438.77;;;8.89;92.53
24336;BME280;33098;52.400;16.880;2023-03-26T07:51:39;99437.61;;;8.90;92.25
24336;BME280;33098;52.400;16.880;2023-03-26T07:54:30;99443.14;;;8.94;92.30
24336;BME280;33098;52.400;16.880;2023-03-26T08:00:36;99441.05;;;9.16;91.85
24336;BME280;33098;52.400;16.880;2023-03-26T08:09:07;99443.13;;;9.10;89.28
24336;BME280;33098;52.400;16.880;2023-03-26T08:11:50;99442.63;;;9.12;89.39
24336;BME280;33098;52.400;16.880;2023-03-26T08:14:30;99444.96;;;9.12;88.72
24336;BME280;33098;52.400;16.880;2023-03-26T08:19:37;99444.73;;;9.26;90.04
24336;BME280;33098;52.400;16.880;2023-03-26T08:22:16;99440.75;;;9.39;90.56
24336;BME280;33098;52.400;16.880;2023-03-26T08:24:54;99439.01;;;9.55;91.13
24336;BME280;33098;52.400;16.880;2023-03-26T08:30:04;99439.29;;;9.68;90.15
24336;BME280;33098;52.400;16.880;2023-03-26T08:32:34;99445.13;;;9.65;89.25
24336;BME280;33098;52.400;16.880;2023-03-26T08:35:01;99438.81;;;9.61;87.85
24336;BME280;33098;52.400;16.880;2023-03-26T08:37:29;99439.71;;;9.61;88.42
24336;BME280;33098;52.400;16.880;2023-03-26T08:39:59;99437.89;;;9.67;88.40
24336;BME280;33098;52.400;16.880;2023-03-26T09:03:22;99434.53;;;9.71;84.37
24336;BME280;33098;52.400;16.880;2023-03-26T09:21:56;99434.36;;;10.14;85.14
24336;BME280;33098;52.400;16.880;2023-03-26T09:27:25;99431.83;;;10.43;83.01
24336;BME280;33098;52.400;16.880;2023-03-26T09:32:49;99439.80;;;10.41;79.70
24336;BME280;33098;52.400;16.880;2023-03-26T09:35:29;99437.98;;;10.42;78.97
24336;BME280;33098;52.400;16.880;2023-03-26T09:40:52;99432.35;;;10.34;77.27
24336;BME280;33098;52.400;16.880;2023-03-26T09:48:32;99432.89;;;10.20;77.74
24336;BME280;33098;52.400;16.880;2023-03-26T09:51:11;99434.77;;;10.19;77.85
24336;BME280;33098;52.400;16.880;2023-03-26T10:01:13;99429.55;;;10.37;78.98
24336;BME280;33098;52.400;16.880;2023-03-26T10:06:35;99427.53;;;10.60;79.24
24336;BME280;33098;52.400;16.880;2023-03-26T10:12:11;99429.87;;;10.88;80.10
24336;BME280;33098;52.400;16.880;2023-03-26T10:36:04;99455.31;;;10.13;86.09
24336;BME280;33098;52.400;16.880;2023-03-26T10:41:34;99457.25;;;9.88;85.63
24336;BME280;33098;52.400;16.880;2023-03-26T10:49:49;99449.56;;;9.79;87.14
24336;BME280;33098;52.400;16.880;2023-03-26T10:52:25;99448.79;;;9.82;87.15
24336;BME280;33098;52.400;16.880;2023-03-26T10:57:56;99448.51;;;10.03;87.07
24336;BME280;33098;52.400;16.880;2023-03-26T11:00:20;99445.72;;;10.17;87.16
24336;BME280;33098;52.400;16.880;2023-03-26T11:08:01;99440.28;;;10.46;84.94
24336;BME280;33098;52.400;16.880;2023-03-26T11:10:48;99443.14;;;10.53;83.74
24336;BME280;33098;52.400;16.880;2023-03-26T11:26:52;99430.83;;;11.15;79.02
24336;BME280;33098;52.400;16.880;2023-03-26T11:34:33;99420.63;;;11.88;78.02
24336;BME280;33098;52.400;16.880;2023-03-26T11:37:03;99420.79;;;12.26;77.45
24336;BME280;33098;52.400;16.880;2023-03-26T11:39:39;99421.18;;;12.43;76.77
24336;BME280;33098;52.400;16.880;2023-03-26T11:42:08;99418.36;;;12.53;76.10
24336;BME280;33098;52.400;16.880;2023-03-26T11:44:56;99421.01;;;12.46;75.59
24336;BME280;33098;52.400;16.880;2023-03-26T11:47:29;99424.52;;;12.47;74.81
24336;BME280;33098;52.400;16.880;2023-03-26T11:49:58;99422.80;;;12.50;75.38
24336;BME280;33098;52.400;16.880;2023-03-26T11:52:26;99423.41;;;12.47;74.27
24336;BME280;33098;52.400;16.880;2023-03-26T11:54:53;99423.13;;;12.43;72.72
24336;BME280;33098;52.400;16.880;2023-03-26T11:57:28;99418.44;;;12.35;72.56
24336;BME280;33098;52.400;16.880;2023-03-26T12:00:00;99419.46;;;12.41;71.82
24336;BME280;33098;52.400;16.880;2023-03-26T12:02:39;99420.92;;;12.23;69.35
24336;BME280;33098;52.400;16.880;2023-03-26T12:05:11;99422.24;;;12.06;69.54
24336;BME280;33098;52.400;16.880;2023-03-26T12:07:50;99424.70;;;12.03;70.56
24336;BME280;33098;52.400;16.880;2023-03-26T12:10:36;99433.35;;;12.02;71.19
24336;BME280;33098;52.400;16.880;2023-03-26T12:15:48;99438.64;;;11.87;72.69
24336;BME280;33098;52.400;16.880;2023-03-26T12:18:27;99439.77;;;11.83;73.28
24336;BME280;33098;52.400;16.880;2023-03-26T12:23:39;99435.58;;;12.20;75.57
24336;BME280;33098;52.400;16.880;2023-03-26T12:26:15;99433.02;;;12.39;74.74
24336;BME280;33098;52.400;16.880;2023-03-26T12:28:43;99433.41;;;12.52;74.87
24336;BME280;33098;52.400;16.880;2023-03-26T12:31:10;99433.27;;;12.48;74.12
24336;BME280;33098;52.400;16.880;2023-03-26T12:34:02;99434.12;;;12.42;73.97
24336;BME280;33098;52.400;16.880;2023-03-26T12:36:30;99435.40;;;12.06;73.13
24336;BME280;33098;52.400;16.880;2023-03-26T12:38:58;99434.78;;;11.92;74.26
24336;BME280;33098;52.400;16.880;2023-03-26T12:41:35;99430.44;;;11.79;74.33
24336;BME280;33098;52.400;16.880;2023-03-26T12:44:18;99423.71;;;11.77;74.92
24336;BME280;33098;52.400;16.880;2023-03-26T12:46:47;99416.47;;;11.82;74.89
24336;BME280;33098;52.400;16.880;2023-03-26T12:49:15;99411.83;;;11.96;75.26
24336;BME280;33098;52.400;16.880;2023-03-26T12:51:47;99401.80;;;12.10;75.16
24336;BME280;33098;52.400;16.880;2023-03-26T12:57:31;99391.11;;;12.86;75.88
24336;BME280;33098;52.400;16.880;2023-03-26T13:04:58;99387.81;;;13.86;73.66
24336;BME280;33098;52.400;16.880;2023-03-26T13:18:15;99373.66;;;15.55;68.79
24336;BME280;33098;52.400;16.880;2023-03-26T13:26:07;99372.69;;;16.33;65.95
24336;BME280;33098;52.400;16.880;2023-03-26T13:37:01;99377.40;;;15.78;63.10
24336;BME280;33098;52.400;16.880;2023-03-26T13:47:19;99384.23;;;13.99;62.96
24336;BME280;33098;52.400;16.880;2023-03-26T13:49:49;99383.66;;;13.67;63.59
24336;BME280;33098;52.400;16.880;2023-03-26T13:57:17;99388.39;;;12.99;62.75
24336;BME280;33098;52.400;16.880;2023-03-26T13:59:54;99377.92;;;12.86;62.73
24336;BME280;33098;52.400;16.880;2023-03-26T14:02:25;99379.81;;;12.83;62.77
24336;BME280;33098;52.400;16.880;2023-03-26T14:05:02;99382.08;;;12.79;62.84
24336;BME280;33098;52.400;16.880;2023-03-26T14:07:33;99381.19;;;12.72;62.78
24336;BME280;33098;52.400;16.880;2023-03-26T14:10:06;99381.49;;;12.67;63.04
24336;BME280;33098;52.400;16.880;2023-03-26T14:12:40;99381.67;;;12.55;62.32
24336;BME280;33098;52.400;16.880;2023-03-26T14:18:18;99384.79;;;12.37;62.69
24336;BME280;33098;52.400;16.880;2023-03-26T14:23:32;99383.39;;;12.57;62.55
24336;BME280;33098;52.400;16.880;2023-03-26T14:31:26;99383.84;;;12.39;61.69
24336;BME280;33098;52.400;16.880;2023-03-26T14:36:59;99384.70;;;12.38;61.56
24336;BME280;33098;52.400;16.880;2023-03-26T14:53:37;99388.41;;;11.67;61.17
24336;BME280;33098;52.400;16.880;2023-03-26T14:59:10;99389.29;;;11.57;61.01
24336;BME280;33098;52.400;16.880;2023-03-26T15:14:39;99395.70;;;10.94;61.70
24336;BME280;33098;52.400;16.880;2023-03-26T15:36:09;99386.64;;;10.99;63.82
24336;BME280;33098;52.400;16.880;2023-03-26T15:38:34;99386.83;;;11.02;63.79
24336;BME280;33098;52.400;16.880;2023-03-26T15:49:05;99380.55;;;10.89;63.19
24336;BME280;33098;52.400;16.880;2023-03-26T15:51:41;99379.78;;;10.90;63.29
24336;BME280;33098;52.400;16.880;2023-03-26T15:56:52;99379.32;;;10.82;62.77
24336;BME280;33098;52.400;16.880;2023-03-26T15:59:28;99382.04;;;10.78;62.83
24336;BME280;33098;52.400;16.880;2023-03-26T16:15:28;99377.70;;;10.58;63.74
24336;BME280;33098;52.400;16.880;2023-03-26T16:23:28;99362.75;;;10.94;64.39
24336;BME280;33098;52.400;16.880;2023-03-26T16:33:49;99368.27;;;10.79;64.08
24336;BME280;33098;52.400;16.880;2023-03-26T16:41:33;99372.16;;;10.30;64.23
24336;BME280;33098;52.400;16.880;2023-03-26T17:02:03;99365.01;;;10.01;65.28
24336;BME280;33098;52.400;16.880;2023-03-26T17:04:32;99363.51;;;9.88;64.93
24336;BME280;33098;52.400;16.880;2023-03-26T17:07:05;99364.59;;;9.72;65.14
24336;BME280;33098;52.400;16.880;2023-03-26T17:09:56;99364.66;;;9.66;65.75
24336;BME280;33098;52.400;16.880;2023-03-26T17:12:35;99367.30;;;9.64;66.09
24336;BME280;33098;52.400;16.880;2023-03-26T17:15:30;99368.41;;;9.64;66.20
24336;BME280;33098;52.400;16.880;2023-03-26T17:20:40;99372.55;;;9.51;66.55
24336;BME280;33098;52.400;16.880;2023-03-26T17:25:56;99369.98;;;9.39;66.67
24336;BME280;33098;52.400;16.880;2023-03-26T17:28:51;99371.11;;;9.30;67.06
24336;BME280;33098;52.400;16.880;2023-03-26T17:36:55;99371.83;;;9.24;67.74
24336;BME280;33098;52.400;16.880;2023-03-26T17:42:17;99372.94;;;9.20;68.04
24336;BME280;33098;52.400;16.880;2023-03-26T17:44:48;99374.20;;;9.21;68.36
24336;BME280;33098;52.400;16.880;2023-03-26T17:47:35;99373.90;;;9.21;68.46
24336;BME280;33098;52.400;16.880;2023-03-26T17:50:11;99371.35;;;9.13;68.41
24336;BME280;33098;52.400;16.880;2023-03-26T17:52:40;99378.02;;;9.12;68.74
24336;BME280;33098;52.400;16.880;2023-03-26T17:55:17;99370.59;;;9.16;68.89
24336;BME280;33098;52.400;16.880;2023-03-26T17:57:56;99369.24;;;9.15;68.95
24336;BME280;33098;52.400;16.880;2023-03-26T18:00:34;99372.52;;;9.09;68.86
24336;BME280;33098;52.400;16.880;2023-03-26T18:03:02;99373.57;;;8.94;69.05
24336;BME280;33098;52.400;16.880;2023-03-26T18:05:30;99371.81;;;8.92;69.34
24336;BME280;33098;52.400;16.880;2023-03-26T18:18:06;99382.52;;;8.83;70.23
24336;BME280;33098;52.400;16.880;2023-03-26T18:20:35;99382.50;;;8.77;70.28
24336;BME280;33098;52.400;16.880;2023-03-26T18:23:08;99384.77;;;8.78;70.65
24336;BME280;33098;52.400;16.880;2023-03-26T18:25:36;99384.48;;;8.77;70.72
24336;BME280;33098;52.400;16.880;2023-03-26T18:28:06;99383.46;;;8.70;70.75
24336;BME280;33098;52.400;16.880;2023-03-26T18:30:32;99385.39;;;8.64;71.01
24336;BME280;33098;52.400;16.880;2023-03-26T18:33:11;99379.48;;;8.63;71.19
24336;BME280;33098;52.400;16.880;2023-03-26T18:35:45;99383.38;;;8.61;71.38
24336;BME280;33098;52.400;16.880;2023-03-26T18:38:18;99378.76;;;8.61;71.56
24336;BME280;33098;52.400;16.880;2023-03-26T18:40:46;99383.73;;;8.57;71.64
24336;BME280;33098;52.400;16.880;2023-03-26T18:43:14;99383.40;;;8.61;71.97
24336;BME280;33098;52.400;16.880;2023-03-26T18:45:42;99380.67;;;8.64;72.01
24336;BME280;33098;52.400;16.880;2023-03-26T18:50:44;99381.77;;;8.59;72.20
24336;BME280;33098;52.400;16.880;2023-03-26T18:53:16;99377.45;;;8.56;72.32
24336;BME280;33098;52.400;16.880;2023-03-26T18:55:46;99378.69;;;8.52;72.51
24336;BME280;33098;52.400;16.880;2023-03-26T18:58:21;99380.45;;;8.48;72.64
24336;BME280;33098;52.400;16.880;2023-03-26T19:00:50;99371.21;;;8.49;72.86
24336;BME280;33098;52.400;16.880;2023-03-26T19:03:19;99373.70;;;8.46;72.86
24336;BME280;33098;52.400;16.880;2023-03-26T19:05:47;99370.98;;;8.45;72.86
24336;BME280;33098;52.400;16.880;2023-03-26T19:08:14;99374.98;;;8.42;73.04
24336;BME280;33098;52.400;16.880;2023-03-26T19:10:41;99379.02;;;8.40;73.08
24336;BME280;33098;52.400;16.880;2023-03-26T19:13:12;99375.91;;;8.39;73.22
24336;BME280;33098;52.400;16.880;2023-03-26T19:15:40;99379.77;;;8.43;73.46
24336;BME280;33098;52.400;16.880;2023-03-26T19:18:12;99375.05;;;8.41;73.31
24336;BME280;33098;52.400;16.880;2023-03-26T19:20:42;99375.04;;;8.39;73.54
24336;BME280;33098;52.400;16.880;2023-03-26T19:23:14;99372.98;;;8.38;73.52
24336;BME280;33098;52.400;16.880;2023-03-26T19:25:51;99373.98;;;8.39;73.78
24336;BME280;33098;52.400;16.880;2023-03-26T19:28:21;99371.85;;;8.37;73.62
24336;BME280;33098;52.400;16.880;2023-03-26T19:30:52;99366.73;;;8.26;73.56